sensor_id;sensor_type;location;lat;lon;timestamp;pressure;altitude;pressure_sealevel;temperature;humidity
1832;BME280;1680;48.106;11.708;2023-03-11T00:00:15;94195.94;;;4.35;72.44
1832;BME280;1680;48.106;11.708;2023-03-11T00:02:43;94189.00;;;4.29;72.21
1832;BME280;1680;48.106;11.708;2023-03-11T00:05:13;94200.53;;;4.33;71.83
1832;BME280;1680;48.106;11.708;2023-03-11T00:07:43;94221.44;;;4.38;71.57
1832;BME280;1680;48.106;11.708;2023-03-11T00:10:13;94215.16;;;4.28;70.89
1832;BME280;1680;48.106;11.708;2023-03-11T00:12:41;94222.16;;;4.27;71.27
1832;BME280;1680;48.106;11.708;2023-03-11T00:15:09;94225.78;;;4.26;69.68
1832;BME280;1680;48.106;11.708;2023-03-11T00:17:36;94212.22;;;4.24;69.55
1832;BME280;1680;48.106;11.708;2023-03-11T00:20:06;94209.63;;;4.06;69.51
1832;BME280;1680;48.106;11.708;2023-03-11T00:22:34;94220.19;;;4.23;69.94
1832;BME280;1680;48.106;11.708;2023-03-11T00:25:01;94176.31;;;3.85;68.56
1832;BME280;1680;48.106;11.708;2023-03-11T00:27:30;94223.00;;;4.03;67.80
1832;BME280;1680;48.106;11.708;2023-03-11T00:29:57;94226.03;;;4.00;68.08
1832;BME280;1680;48.106;11.708;2023-03-11T00:32:24;94221.84;;;3.99;67.79
1832;BME280;1680;48.106;11.708;2023-03-11T00:34:52;94226.34;;;4.10;68.93
1832;BME280;1680;48.106;11.708;2023-03-11T00:37:19;94230.38;;;4.06;68.62
1832;BME280;1680;48.106;11.708;2023-03-11T00:39:46;94206.38;;;3.69;68.58
1832;BME280;1680;48.106;11.708;2023-03-11T00:42:14;94239.78;;;4.01;68.25
1832;BME280;1680;48.106;11.708;2023-03-11T00:44:42;94255.41;;;3.94;68.72
1832;BME280;1680;48.106;11.708;2023-03-11T00:47:10;94250.59;;;3.74;68.42
1832;BME280;1680;48.106;11.708;2023-03-11T00:49:38;94255.78;;;3.74;68.57
1832;BME280;1680;48.106;11.708;2023-03-11T00:52:05;94195.44;;;3.42;69.46
1832;BME280;1680;48.106;11.708;2023-03-11T00:54:32;94266.63;;;3.88;68.75
1832;BME280;1680;48.106;11.708;2023-03-11T00:57:00;94281.00;;;3.84;68.22
1832;BME280;1680;48.106;11.708;2023-03-11T00:59:27;94271.13;;;3.75;69.22
1832;BME280;1680;48.106;11.708;2023-03-11T01:01:56;94271.91;;;3.76;69.64
1832;BME280;1680;48.106;11.708;2023-03-11T01:04:23;94253.47;;;3.66;68.87
1832;BME280;1680;48.106;11.708;2023-03-11T01:06:50;94263.78;;;3.72;69.51
1832;BME280;1680;48.106;11.708;2023-03-11T01:09:17;94282.50;;;3.74;69.94
1832;BME280;1680;48.106;11.708;2023-03-11T01:11:45;94284.25;;;3.80;68.88
1832;BME280;1680;48.106;11.708;2023-03-11T01:14:12;94290.84;;;3.76;68.63
1832;BME280;1680;48.106;11.708;2023-03-11T01:16:39;94277.41;;;3.61;69.87
1832;BME280;1680;48.106;11.708;2023-03-11T01:19:08;94272.84;;;3.57;70.52
1832;BME280;1680;48.106;11.708;2023-03-11T01:21:35;94274.81;;;3.61;70.01
1832;BME280;1680;48.106;11.708;2023-03-11T01:24:03;94273.28;;;3.54;69.66
1832;BME280;1680;48.106;11.708;2023-03-11T01:26:30;94263.59;;;3.43;71.03
1832;BME280;1680;48.106;11.708;2023-03-11T01:28:58;94260.75;;;3.51;70.23
1832;BME280;1680;48.106;11.708;2023-03-11T01:31:25;94263.91;;;3.53;71.02
1832;BME280;1680;48.106;11.708;2023-03-11T01:33:52;94275.44;;;3.57;70.24
1832;BME280;1680;48.106;11.708;2023-03-11T01:36:21;94281.44;;;3.57;71.11
1832;BME280;1680;48.106;11.708;2023-03-11T01:38:48;94279.56;;;3.64;71.02
1832;BME280;1680;48.106;11.708;2023-03-11T01:41:15;94296.59;;;3.54;70.56
1832;BME280;1680;48.106;11.708;2023-03-11T01:43:48;94267.84;;;3.31;70.76
1832;BME280;1680;48.106;11.708;2023-03-11T01:46:18;94284.91;;;3.45;70.37
1832;BME280;1680;48.106;11.708;2023-03-11T01:48:48;94292.91;;;3.43;71.89
1832;BME280;1680;48.106;11.708;2023-03-11T01:51:19;94295.69;;;3.42;70.64
1832;BME280;1680;48.106;11.708;2023-03-11T01:53:49;94289.91;;;3.40;70.77
1832;BME280;1680;48.106;11.708;2023-03-11T01:56:17;94292.63;;;3.51;71.35
1832;BME280;1680;48.106;11.708;2023-03-11T01:58:46;94289.09;;;3.46;69.89
1832;BME280;1680;48.106;11.708;2023-03-11T02:01:17;94293.25;;;3.47;70.60
1832;BME280;1680;48.106;11.708;2023-03-11T02:03:45;94282.22;;;3.58;70.12
1832;BME280;1680;48.106;11.708;2023-03-11T02:06:15;94289.81;;;3.53;70.78
1832;BME280;1680;48.106;11.708;2023-03-11T02:08:43;94304.88;;;3.38;69.29
1832;BME280;1680;48.106;11.708;2023-03-11T02:11:15;94280.94;;;3.42;69.67
1832;BME280;1680;48.106;11.708;2023-03-11T02:13:44;94296.31;;;3.37;69.32
1832;BME280;1680;48.106;11.708;2023-03-11T02:16:12;94288.00;;;3.29;70.21
1832;BME280;1680;48.106;11.708;2023-03-11T02:18:40;94287.16;;;3.35;70.53
1832;BME280;1680;48.106;11.708;2023-03-11T02:21:17;94309.47;;;3.36;68.58
1832;BME280;1680;48.106;11.708;2023-03-11T02:23:54;94295.09;;;3.40;69.75
1832;BME280;1680;48.106;11.708;2023-03-11T02:26:29;94268.34;;;3.15;69.13
1832;BME280;1680;48.106;11.708;2023-03-11T02:29:03;94314.06;;;3.34;69.31
1832;BME280;1680;48.106;11.708;2023-03-11T02:31:32;94300.19;;;3.22;69.09
1832;BME280;1680;48.106;11.708;2023-03-11T02:34:01;94304.03;;;3.13;69.19
1832;BME280;1680;48.106;11.708;2023-03-11T02:36:34;94292.88;;;3.12;69.74
1832;BME280;1680;48.106;11.708;2023-03-11T02:39:02;94304.19;;;3.18;69.43
1832;BME280;1680;48.106;11.708;2023-03-11T02:41:31;94303.78;;;3.21;69.21
1832;BME280;1680;48.106;11.708;2023-03-11T02:43:59;94314.00;;;3.09;69.59
1832;BME280;1680;48.106;11.708;2023-03-11T02:46:30;94308.00;;;3.09;69.18
1832;BME280;1680;48.106;11.708;2023-03-11T02:48:58;94314.06;;;2.96;69.60
1832;BME280;1680;48.106;11.708;2023-03-11T02:51:26;94313.25;;;2.96;69.15
1832;BME280;1680;48.106;11.708;2023-03-11T02:53:57;94310.25;;;2.99;69.53
1832;BME280;1680;48.106;11.708;2023-03-11T02:56:25;94309.66;;;2.97;69.19
1832;BME280;1680;48.106;11.708;2023-03-11T02:58:53;94313.28;;;2.89;69.58
1832;BME280;1680;48.106;11.708;2023-03-11T03:01:20;94327.03;;;2.90;70.23
1832;BME280;1680;48.106;11.708;2023-03-11T03:03:49;94322.03;;;2.95;70.07
1832;BME280;1680;48.106;11.708;2023-03-11T03:06:16;94319.19;;;3.09;69.52
1832;BME280;1680;48.106;11.708;2023-03-11T03:08:44;94320.97;;;3.09;68.99
1832;BME280;1680;48.106;11.708;2023-03-11T03:11:11;94332.19;;;2.96;68.44
1832;BME280;1680;48.106;11.708;2023-03-11T03:13:38;94340.97;;;2.89;69.61
1832;BME280;1680;48.106;11.708;2023-03-11T03:16:06;94340.34;;;3.00;69.13
1832;BME280;1680;48.106;11.708;2023-03-11T03:18:33;94321.03;;;2.89;68.62
1832;BME280;1680;48.106;11.708;2023-03-11T03:21:02;94348.50;;;2.97;68.67
1832;BME280;1680;48.106;11.708;2023-03-11T03:23:30;94351.34;;;2.89;68.76
1832;BME280;1680;48.106;11.708;2023-03-11T03:26:00;94347.56;;;2.85;68.81
1832;BME280;1680;48.106;11.708;2023-03-11T03:28:27;94292.75;;;2.44;68.95
1832;BME280;1680;48.106;11.708;2023-03-11T03:30:55;94357.91;;;2.85;69.69
1832;BME280;1680;48.106;11.708;2023-03-11T03:33:22;94359.91;;;2.83;68.79
1832;BME280;1680;48.106;11.708;2023-03-11T03:35:49;94354.34;;;2.80;69.78
1832;BME280;1680;48.106;11.708;2023-03-11T03:38:18;94352.72;;;2.85;68.78
1832;BME280;1680;48.106;11.708;2023-03-11T03:40:45;94350.75;;;2.87;68.83
1832;BME280;1680;48.106;11.708;2023-03-11T03:43:13;94344.00;;;2.80;68.73
1832;BME280;1680;48.106;11.708;2023-03-11T03:45:41;94347.91;;;2.95;68.78
1832;BME280;1680;48.106;11.708;2023-03-11T03:48:08;94374.25;;;2.73;68.71
1832;BME280;1680;48.106;11.708;2023-03-11T03:50:35;94367.72;;;2.70;68.43
1832;BME280;1680;48.106;11.708;2023-03-11T03:53:02;94376.69;;;2.61;69.28
1832;BME280;1680;48.106;11.708;2023-03-11T03:55:32;94373.13;;;2.62;69.01
1832;BME280;1680;48.106;11.708;2023-03-11T03:57:59;94352.81;;;2.59;68.54
1832;BME280;1680;48.106;11.708;2023-03-11T04:00:26;94355.16;;;2.67;68.22
1832;BME280;1680;48.106;11.708;2023-03-11T04:02:53;94347.66;;;2.53;68.99
1832;BME280;1680;48.106;11.708;2023-03-11T04:05:21;94360.38;;;2.54;69.61
1832;BME280;1680;48.106;11.708;2023-03-11T04:07:51;94363.19;;;2.53;69.00
1832;BME280;1680;48.106;11.708;2023-03-11T04:10:18;94363.00;;;2.41;69.53
1832;BME280;1680;48.106;11.708;2023-03-11T04:12:47;94366.16;;;2.50;69.39
1832;BME280;1680;48.106;11.708;2023-03-11T04:15:14;94362.38;;;2.52;69.43
1832;BME280;1680;48.106;11.708;2023-03-11T04:17:41;94355.59;;;2.51;69.40
1832;BME280;1680;48.106;11.708;2023-03-11T04:20:10;94363.19;;;2.46;69.35
1832;BME280;1680;48.106;11.708;2023-03-11T04:22:37;94363.75;;;2.61;69.20
1832;BME280;1680;48.106;11.708;2023-03-11T04:25:05;94367.94;;;2.49;68.76
1832;BME280;1680;48.106;11.708;2023-03-11T04:27:33;94360.38;;;2.54;69.25
1832;BME280;1680;48.106;11.708;2023-03-11T04:30:01;94375.28;;;2.65;69.53
1832;BME280;1680;48.106;11.708;2023-03-11T04:32:29;94365.53;;;2.67;69.24
1832;BME280;1680;48.106;11.708;2023-03-11T04:34:57;94366.34;;;2.61;70.25
1832;BME280;1680;48.106;11.708;2023-03-11T04:37:26;94369.91;;;2.67;69.31
1832;BME280;1680;48.106;11.708;2023-03-11T04:39:54;94368.47;;;2.71;68.91
1832;BME280;1680;48.106;11.708;2023-03-11T04:42:21;94373.50;;;2.59;69.78
1832;BME280;1680;48.106;11.708;2023-03-11T04:44:48;94372.28;;;2.68;69.71
1832;BME280;1680;48.106;11.708;2023-03-11T04:47:17;94380.69;;;2.57;69.64
1832;BME280;1680;48.106;11.708;2023-03-11T04:49:46;94378.66;;;2.66;69.70
1832;BME280;1680;48.106;11.708;2023-03-11T04:52:13;94379.28;;;2.68;69.89
1832;BME280;1680;48.106;11.708;2023-03-11T04:54:40;94375.88;;;2.67;70.30
1832;BME280;1680;48.106;11.708;2023-03-11T04:57:08;94381.44;;;2.77;69.50
1832;BME280;1680;48.106;11.708;2023-03-11T04:59:35;94379.41;;;2.79;69.75
1832;BME280;1680;48.106;11.708;2023-03-11T05:02:03;94390.38;;;2.81;69.62
1832;BME280;1680;48.106;11.708;2023-03-11T05:04:31;94388.97;;;2.85;69.73
1832;BME280;1680;48.106;11.708;2023-03-11T05:06:58;94390.00;;;2.71;69.77
1832;BME280;1680;48.106;11.708;2023-03-11T05:09:26;94386.75;;;2.95;69.60
1832;BME280;1680;48.106;11.708;2023-03-11T05:11:53;94390.91;;;2.96;69.49
1832;BME280;1680;48.106;11.708;2023-03-11T05:14:20;94359.47;;;2.92;69.08
1832;BME280;1680;48.106;11.708;2023-03-11T05:16:47;94399.63;;;3.08;69.46
1832;BME280;1680;48.106;11.708;2023-03-11T05:19:15;94408.88;;;2.91;69.59
1832;BME280;1680;48.106;11.708;2023-03-11T05:22:01;94406.06;;;2.99;69.02
1832;BME280;1680;48.106;11.708;2023-03-11T05:24:29;94404.03;;;3.07;68.69
1832;BME280;1680;48.106;11.708;2023-03-11T05:26:56;94409.22;;;3.07;69.40
1832;BME280;1680;48.106;11.708;2023-03-11T05:29:24;94384.16;;;2.88;68.97
1832;BME280;1680;48.106;11.708;2023-03-11T05:31:52;94415.66;;;2.92;69.51
1832;BME280;1680;48.106;11.708;2023-03-11T05:34:19;94414.47;;;2.88;70.38
1832;BME280;1680;48.106;11.708;2023-03-11T05:36:47;94410.84;;;3.02;69.75
1832;BME280;1680;48.106;11.708;2023-03-11T05:39:15;94426.81;;;2.86;70.46
1832;BME280;1680;48.106;11.708;2023-03-11T05:41:42;94424.81;;;2.88;70.43
1832;BME280;1680;48.106;11.708;2023-03-11T05:44:10;94439.94;;;2.91;70.44
1832;BME280;1680;48.106;11.708;2023-03-11T05:46:37;94432.94;;;2.98;70.52
1832;BME280;1680;48.106;11.708;2023-03-11T05:49:04;94431.78;;;2.81;71.49
1832;BME280;1680;48.106;11.708;2023-03-11T05:51:31;94432.38;;;2.89;71.35
1832;BME280;1680;48.106;11.708;2023-03-11T05:54:00;94400.56;;;2.50;72.07
1832;BME280;1680;48.106;11.708;2023-03-11T05:56:28;94423.25;;;2.74;71.42
1832;BME280;1680;48.106;11.708;2023-03-11T05:58:56;94438.75;;;2.87;72.22
1832;BME280;1680;48.106;11.708;2023-03-11T06:01:23;94436.94;;;2.94;71.28
1832;BME280;1680;48.106;11.708;2023-03-11T06:03:51;94431.19;;;2.92;72.00
1832;BME280;1680;48.106;11.708;2023-03-11T06:06:18;94439.38;;;2.83;71.88
1832;BME280;1680;48.106;11.708;2023-03-11T06:08:45;94430.97;;;2.87;71.39
1832;BME280;1680;48.106;11.708;2023-03-11T06:11:15;94440.53;;;2.80;71.64
1832;BME280;1680;48.106;11.708;2023-03-11T06:13:43;94441.75;;;2.71;70.94
1832;BME280;1680;48.106;11.708;2023-03-11T06:16:11;94446.34;;;2.69;70.49
1832;BME280;1680;48.106;11.708;2023-03-11T06:18:38;94451.31;;;2.71;70.46
1832;BME280;1680;48.106;11.708;2023-03-11T06:21:05;94455.28;;;2.86;69.18
1832;BME280;1680;48.106;11.708;2023-03-11T06:23:33;94454.47;;;2.85;68.16
1832;BME280;1680;48.106;11.708;2023-03-11T06:26:02;94462.66;;;2.76;68.50
1832;BME280;1680;48.106;11.708;2023-03-11T06:28:31;94472.00;;;2.90;66.68
1832;BME280;1680;48.106;11.708;2023-03-11T06:31:07;94473.59;;;2.72;65.78
1832;BME280;1680;48.106;11.708;2023-03-11T06:33:35;94467.81;;;2.89;65.12
1832;BME280;1680;48.106;11.708;2023-03-11T06:36:03;94470.97;;;3.04;64.21
1832;BME280;1680;48.106;11.708;2023-03-11T06:38:31;94461.81;;;2.95;63.58
1832;BME280;1680;48.106;11.708;2023-03-11T06:40:59;94471.41;;;2.88;62.34
1832;BME280;1680;48.106;11.708;2023-03-11T06:43:27;94487.34;;;2.85;62.67
1832;BME280;1680;48.106;11.708;2023-03-11T06:45:54;94488.50;;;3.02;63.59
1832;BME280;1680;48.106;11.708;2023-03-11T06:48:23;94495.28;;;3.03;63.26
1832;BME280;1680;48.106;11.708;2023-03-11T06:50:53;94495.03;;;3.24;63.48
1832;BME280;1680;48.106;11.708;2023-03-11T06:53:21;94502.22;;;3.15;62.76
1832;BME280;1680;48.106;11.708;2023-03-11T06:55:57;94495.22;;;3.29;62.85
1832;BME280;1680;48.106;11.708;2023-03-11T06:58:25;94500.06;;;3.06;62.20
1832;BME280;1680;48.106;11.708;2023-03-11T07:00:52;94506.25;;;3.05;62.28
1832;BME280;1680;48.106;11.708;2023-03-11T07:03:19;94519.59;;;2.89;62.34
1832;BME280;1680;48.106;11.708;2023-03-11T07:05:50;94521.16;;;2.71;63.19
1832;BME280;1680;48.106;11.708;2023-03-11T07:08:18;94520.00;;;2.60;63.36
1832;BME280;1680;48.106;11.708;2023-03-11T07:10:45;94522.00;;;2.65;64.03
1832;BME280;1680;48.106;11.708;2023-03-11T07:13:12;94535.09;;;2.50;64.65
1832;BME280;1680;48.106;11.708;2023-03-11T07:15:40;94524.56;;;2.45;65.63
1832;BME280;1680;48.106;11.708;2023-03-11T07:18:07;94533.13;;;2.52;65.71
1832;BME280;1680;48.106;11.708;2023-03-11T07:20:34;94535.91;;;2.57;65.21
1832;BME280;1680;48.106;11.708;2023-03-11T07:23:03;94545.44;;;2.63;65.41
1832;BME280;1680;48.106;11.708;2023-03-11T07:25:30;94545.88;;;2.67;65.38
1832;BME280;1680;48.106;11.708;2023-03-11T07:27:57;94552.25;;;2.90;65.11
1832;BME280;1680;48.106;11.708;2023-03-11T07:30:24;94558.44;;;2.76;65.50
1832;BME280;1680;48.106;11.708;2023-03-11T07:32:52;94559.81;;;2.72;65.01
1832;BME280;1680;48.106;11.708;2023-03-11T07:35:19;94568.56;;;2.84;64.95
1832;BME280;1680;48.106;11.708;2023-03-11T07:37:46;94563.22;;;2.92;65.25
1832;BME280;1680;48.106;11.708;2023-03-11T07:40:15;94568.56;;;2.65;64.93
1832;BME280;1680;48.106;11.708;2023-03-11T07:42:42;94564.59;;;2.69;65.32
1832;BME280;1680;48.106;11.708;2023-03-11T07:45:10;94575.72;;;2.56;65.54
1832;BME280;1680;48.106;11.708;2023-03-11T07:47:37;94583.69;;;2.61;66.76
1832;BME280;1680;48.106;11.708;2023-03-11T07:50:05;94579.91;;;2.51;65.85
1832;BME280;1680;48.106;11.708;2023-03-11T07:52:32;94595.81;;;2.54;65.62
1832;BME280;1680;48.106;11.708;2023-03-11T07:55:00;94602.59;;;2.68;65.49
1832;BME280;1680;48.106;11.708;2023-03-11T07:57:28;94612.19;;;2.74;64.53
1832;BME280;1680;48.106;11.708;2023-03-11T07:59:55;94604.44;;;2.87;64.35
1832;BME280;1680;48.106;11.708;2023-03-11T08:02:22;94598.03;;;2.96;64.06
1832;BME280;1680;48.106;11.708;2023-03-11T08:04:49;94608.19;;;3.30;63.62
1832;BME280;1680;48.106;11.708;2023-03-11T08:07:17;94600.81;;;3.27;62.86
1832;BME280;1680;48.106;11.708;2023-03-11T08:09:45;94610.78;;;3.30;62.20
1832;BME280;1680;48.106;11.708;2023-03-11T08:12:12;94612.00;;;3.40;62.65
1832;BME280;1680;48.106;11.708;2023-03-11T08:14:40;94606.59;;;3.42;62.84
1832;BME280;1680;48.106;11.708;2023-03-11T08:17:08;94610.75;;;3.56;62.42
1832;BME280;1680;48.106;11.708;2023-03-11T08:19:35;94614.31;;;3.68;62.08
1832;BME280;1680;48.106;11.708;2023-03-11T08:22:03;94605.09;;;3.84;62.45
1832;BME280;1680;48.106;11.708;2023-03-11T08:24:30;94604.56;;;4.26;61.10
1832;BME280;1680;48.106;11.708;2023-03-11T08:26:57;94606.38;;;4.19;60.52
1832;BME280;1680;48.106;11.708;2023-03-11T08:29:24;94613.41;;;4.06;60.30
1832;BME280;1680;48.106;11.708;2023-03-11T08:31:53;94615.28;;;3.92;60.57
1832;BME280;1680;48.106;11.708;2023-03-11T08:34:20;94632.00;;;3.90;60.83
1832;BME280;1680;48.106;11.708;2023-03-11T08:36:47;94619.50;;;3.81;60.07
1832;BME280;1680;48.106;11.708;2023-03-11T08:39:14;94624.66;;;3.87;59.99
1832;BME280;1680;48.106;11.708;2023-03-11T08:41:41;94635.41;;;3.90;60.01
1832;BME280;1680;48.106;11.708;2023-03-11T08:44:08;94630.88;;;3.80;60.36
1832;BME280;1680;48.106;11.708;2023-03-11T08:46:38;94626.72;;;3.66;60.43
1832;BME280;1680;48.106;11.708;2023-03-11T08:49:06;94629.91;;;3.48;61.19
1832;BME280;1680;48.106;11.708;2023-03-11T08:51:34;94615.94;;;3.56;61.21
1832;BME280;1680;48.106;11.708;2023-03-11T08:54:02;94634.66;;;3.71;61.19
1832;BME280;1680;48.106;11.708;2023-03-11T08:56:29;94625.13;;;3.65;61.67
1832;BME280;1680;48.106;11.708;2023-03-11T08:58:57;94634.25;;;3.74;59.84
1832;BME280;1680;48.106;11.708;2023-03-11T09:01:24;94634.47;;;3.79;59.65
1832;BME280;1680;48.106;11.708;2023-03-11T09:03:51;94637.50;;;3.50;60.20
1832;BME280;1680;48.106;11.708;2023-03-11T09:06:20;94633.25;;;3.81;60.60
1832;BME280;1680;48.106;11.708;2023-03-11T09:08:49;94629.41;;;4.03;60.13
1832;BME280;1680;48.106;11.708;2023-03-11T09:11:17;94626.59;;;4.04;59.77
1832;BME280;1680;48.106;11.708;2023-03-11T09:13:46;94634.53;;;4.16;59.44
1832;BME280;1680;48.106;11.708;2023-03-11T09:16:15;94650.47;;;4.26;57.92
1832;BME280;1680;48.106;11.708;2023-03-11T09:18:44;94649.84;;;4.30;57.71
1832;BME280;1680;48.106;11.708;2023-03-11T09:21:11;94643.34;;;4.08;58.58
1832;BME280;1680;48.106;11.708;2023-03-11T09:23:40;94644.56;;;3.99;57.30
1832;BME280;1680;48.106;11.708;2023-03-11T09:26:07;94646.56;;;3.97;57.24
1832;BME280;1680;48.106;11.708;2023-03-11T09:28:34;94647.78;;;3.88;57.45
1832;BME280;1680;48.106;11.708;2023-03-11T09:31:01;94644.97;;;3.90;57.96
1832;BME280;1680;48.106;11.708;2023-03-11T09:33:29;94638.81;;;3.84;57.48
1832;BME280;1680;48.106;11.708;2023-03-11T09:35:57;94620.22;;;4.00;57.32
1832;BME280;1680;48.106;11.708;2023-03-11T09:38:24;94636.72;;;4.25;55.46
1832;BME280;1680;48.106;11.708;2023-03-11T09:40:57;94636.75;;;4.63;54.58
1832;BME280;1680;48.106;11.708;2023-03-11T09:43:34;94639.38;;;4.56;54.30
1832;BME280;1680;48.106;11.708;2023-03-11T09:46:20;94648.84;;;4.31;54.72
1832;BME280;1680;48.106;11.708;2023-03-11T09:48:52;94642.66;;;4.32;54.51
1832;BME280;1680;48.106;11.708;2023-03-11T09:51:26;94640.81;;;4.46;54.24
1832;BME280;1680;48.106;11.708;2023-03-11T09:53:58;94647.97;;;4.50;53.48
1832;BME280;1680;48.106;11.708;2023-03-11T09:56:30;94645.28;;;4.70;53.96
1832;BME280;1680;48.106;11.708;2023-03-11T09:59:04;94648.84;;;4.75;52.51
1832;BME280;1680;48.106;11.708;2023-03-11T10:01:35;94660.09;;;4.63;53.46
1832;BME280;1680;48.106;11.708;2023-03-11T10:04:10;94654.53;;;4.90;52.96
1832;BME280;1680;48.106;11.708;2023-03-11T10:06:40;94654.13;;;4.93;52.46
1832;BME280;1680;48.106;11.708;2023-03-11T10:09:28;94659.97;;;5.19;50.31
1832;BME280;1680;48.106;11.708;2023-03-11T10:12:07;94663.25;;;5.08;50.46
1832;BME280;1680;48.106;11.708;2023-03-11T10:15:02;94668.38;;;5.15;49.70
1832;BME280;1680;48.106;11.708;2023-03-11T10:17:42;94663.94;;;5.22;49.08
1832;BME280;1680;48.106;11.708;2023-03-11T10:20:15;94676.28;;;5.26;50.57
1832;BME280;1680;48.106;11.708;2023-03-11T10:22:53;94671.09;;;5.26;49.57
1832;BME280;1680;48.106;11.708;2023-03-11T10:25:26;94660.16;;;5.42;48.91
1832;BME280;1680;48.106;11.708;2023-03-11T10:27:59;94672.00;;;5.63;48.52
1832;BME280;1680;48.106;11.708;2023-03-11T10:30:32;94668.59;;;5.38;49.08
1832;BME280;1680;48.106;11.708;2023-03-11T10:33:05;94671.47;;;5.30;48.49
1832;BME280;1680;48.106;11.708;2023-03-11T10:35:37;94678.28;;;5.31;47.98
1832;BME280;1680;48.106;11.708;2023-03-11T10:38:12;94675.19;;;5.16;48.61
1832;BME280;1680;48.106;11.708;2023-03-11T10:40:42;94678.00;;;5.08;48.06
1832;BME280;1680;48.106;11.708;2023-03-11T10:43:13;94679.50;;;4.91;49.11
1832;BME280;1680;48.106;11.708;2023-03-11T10:45:42;94675.69;;;5.00;48.38
1832;BME280;1680;48.106;11.708;2023-03-11T10:48:14;94677.28;;;5.01;48.60
1832;BME280;1680;48.106;11.708;2023-03-11T10:50:49;94680.69;;;5.26;48.28
1832;BME280;1680;48.106;11.708;2023-03-11T10:53:18;94682.63;;;5.37;47.76
1832;BME280;1680;48.106;11.708;2023-03-11T10:55:47;94688.53;;;5.74;48.46
1832;BME280;1680;48.106;11.708;2023-03-11T10:58:17;94683.00;;;5.89;47.09
1832;BME280;1680;48.106;11.708;2023-03-11T11:00:45;94677.03;;;5.88;49.72
1832;BME280;1680;48.106;11.708;2023-03-11T11:03:20;94679.03;;;6.29;50.02
1832;BME280;1680;48.106;11.708;2023-03-11T11:05:59;94689.13;;;6.55;49.88
1832;BME280;1680;48.106;11.708;2023-03-11T11:08:26;94680.22;;;6.62;49.69
1832;BME280;1680;48.106;11.708;2023-03-11T11:10:55;94694.41;;;6.48;49.28
1832;BME280;1680;48.106;11.708;2023-03-11T11:13:26;94679.81;;;6.47;49.07
1832;BME280;1680;48.106;11.708;2023-03-11T11:15:59;94676.53;;;6.34;49.35
1832;BME280;1680;48.106;11.708;2023-03-11T11:18:30;94677.31;;;5.98;46.23
1832;BME280;1680;48.106;11.708;2023-03-11T11:21:01;94675.00;;;6.08;46.78
1832;BME280;1680;48.106;11.708;2023-03-11T11:23:36;94674.38;;;6.31;44.74
1832;BME280;1680;48.106;11.708;2023-03-11T11:26:06;94673.72;;;6.17;48.47
1832;BME280;1680;48.106;11.708;2023-03-11T11:28:35;94673.50;;;6.19;49.13
1832;BME280;1680;48.106;11.708;2023-03-11T11:31:05;94675.59;;;6.10;48.05
1832;BME280;1680;48.106;11.708;2023-03-11T11:33:38;94664.16;;;6.11;50.35
1832;BME280;1680;48.106;11.708;2023-03-11T11:36:13;94683.84;;;6.25;50.90
1832;BME280;1680;48.106;11.708;2023-03-11T11:38:41;94679.06;;;6.22;50.50
1832;BME280;1680;48.106;11.708;2023-03-11T11:41:13;94640.47;;;6.19;49.65
1832;BME280;1680;48.106;11.708;2023-03-11T11:43:46;94672.94;;;6.53;50.48
1832;BME280;1680;48.106;11.708;2023-03-11T11:46:20;94670.59;;;6.63;48.87
1832;BME280;1680;48.106;11.708;2023-03-11T11:48:55;94678.91;;;6.71;49.08
1832;BME280;1680;48.106;11.708;2023-03-11T11:51:32;94665.44;;;6.74;48.90
1832;BME280;1680;48.106;11.708;2023-03-11T11:54:02;94663.00;;;6.90;47.89
1832;BME280;1680;48.106;11.708;2023-03-11T11:56:32;94660.38;;;6.79;48.12
1832;BME280;1680;48.106;11.708;2023-03-11T11:59:00;94670.81;;;6.79;48.79
1832;BME280;1680;48.106;11.708;2023-03-11T12:01:35;94661.81;;;6.75;47.82
1832;BME280;1680;48.106;11.708;2023-03-11T12:04:29;94660.72;;;6.35;47.89
1832;BME280;1680;48.106;11.708;2023-03-11T12:07:14;94656.38;;;6.47;47.53
1832;BME280;1680;48.106;11.708;2023-03-11T12:09:51;94656.34;;;6.65;48.60
1832;BME280;1680;48.106;11.708;2023-03-11T12:12:26;94658.47;;;6.86;47.28
1832;BME280;1680;48.106;11.708;2023-03-11T12:15:05;94655.75;;;6.81;46.64
1832;BME280;1680;48.106;11.708;2023-03-11T12:17:39;94654.94;;;6.33;47.76
1832;BME280;1680;48.106;11.708;2023-03-11T12:20:13;94648.28;;;6.19;48.32
1832;BME280;1680;48.106;11.708;2023-03-11T12:23:09;94652.03;;;6.41;48.33
1832;BME280;1680;48.106;11.708;2023-03-11T12:25:50;94645.72;;;6.31;49.38
1832;BME280;1680;48.106;11.708;2023-03-11T12:28:30;94655.88;;;6.21;47.89
1832;BME280;1680;48.106;11.708;2023-03-11T12:31:04;94651.72;;;5.95;48.13
1832;BME280;1680;48.106;11.708;2023-03-11T12:33:36;94652.91;;;6.17;49.69
1832;BME280;1680;48.106;11.708;2023-03-11T12:36:06;94614.72;;;6.11;51.82
1832;BME280;1680;48.106;11.708;2023-03-11T12:38:45;94655.78;;;6.63;48.42
1832;BME280;1680;48.106;11.708;2023-03-11T12:41:27;94642.25;;;6.84;45.05
1832;BME280;1680;48.106;11.708;2023-03-11T12:47:16;94646.38;;;6.44;46.08
1832;BME280;1680;48.106;11.708;2023-03-11T12:49:45;94643.25;;;6.72;45.27
1832;BME280;1680;48.106;11.708;2023-03-11T12:52:21;94643.06;;;6.84;45.81
1832;BME280;1680;48.106;11.708;2023-03-11T12:58:27;94639.94;;;6.94;47.92
1832;BME280;1680;48.106;11.708;2023-03-11T13:01:13;94633.34;;;6.91;47.98
1832;BME280;1680;48.106;11.708;2023-03-11T13:04:01;94621.16;;;7.03;46.74
1832;BME280;1680;48.106;11.708;2023-03-11T13:09:37;94631.50;;;6.80;46.25
1832;BME280;1680;48.106;11.708;2023-03-11T13:15:30;94636.25;;;6.83;46.35
1832;BME280;1680;48.106;11.708;2023-03-11T13:18:01;94630.25;;;6.83;45.77
1832;BME280;1680;48.106;11.708;2023-03-11T13:20:50;94642.56;;;6.76;46.55
1832;BME280;1680;48.106;11.708;2023-03-11T13:23:29;94645.34;;;6.92;46.05
1832;BME280;1680;48.106;11.708;2023-03-11T13:26:21;94638.47;;;6.69;45.52
1832;BME280;1680;48.106;11.708;2023-03-11T13:29:17;94633.16;;;6.75;45.99
1832;BME280;1680;48.106;11.708;2023-03-11T13:32:00;94641.13;;;6.80;47.29
1832;BME280;1680;48.106;11.708;2023-03-11T13:34:37;94649.50;;;6.82;45.59
1832;BME280;1680;48.106;11.708;2023-03-11T13:37:18;94643.94;;;6.78;46.37
1832;BME280;1680;48.106;11.708;2023-03-11T13:39:55;94648.00;;;7.04;47.68
1832;BME280;1680;48.106;11.708;2023-03-11T13:42:28;94651.97;;;7.06;47.31
1832;BME280;1680;48.106;11.708;2023-03-11T13:44:56;94670.78;;;7.38;50.90
1832;BME280;1680;48.106;11.708;2023-03-11T13:47:25;94658.97;;;7.35;47.33
1832;BME280;1680;48.106;11.708;2023-03-11T13:49:59;94655.88;;;7.15;45.97